createdAt,value
2018-05-21T17:18:47.786Z,35
2018-05-21T17:19:50.186Z,35
2018-05-21T17:20:52.242Z,35
2018-05-21T17:21:54.295Z,35
2018-05-21T17:22:56.338Z,35
2018-05-21T17:23:58.364Z,35
2018-05-21T17:25:00.664Z,36
2018-05-21T17:26:02.731Z,35
2018-05-21T17:27:04.752Z,36
2018-05-21T17:28:06.774Z,36
2018-05-21T17:29:09.172Z,36
2018-05-21T17:30:11.198Z,36
2018-05-21T17:31:13.226Z,36
2018-05-21T17:32:15.248Z,36
2018-05-21T17:33:17.260Z,36
2018-05-21T17:34:19.673Z,36
2018-05-21T17:35:21.721Z,36
2018-05-21T17:36:23.709Z,36
2018-05-21T17:37:26.110Z,35
2018-05-21T17:38:28.136Z,35
2018-05-21T17:39:30.154Z,35
2018-05-21T17:40:32.174Z,36
2018-05-21T17:41:34.474Z,36
2018-05-21T17:42:36.490Z,36
2018-05-21T17:43:38.515Z,36
2018-05-21T17:44:40.528Z,36
2018-05-21T17:45:42.552Z,36
2018-05-21T17:46:44.565Z,37
2018-05-21T17:47:46.583Z,37
2018-05-21T17:48:48.599Z,37
2018-05-21T17:49:50.611Z,37
2018-05-21T17:50:52.638Z,37
2018-05-21T17:51:54.652Z,37
2018-05-21T17:52:57.039Z,36
2018-05-21T17:53:59.065Z,36
2018-05-21T17:55:01.091Z,36
2018-05-21T17:56:03.110Z,37
2018-05-21T17:57:05.398Z,36
2018-05-21T17:58:07.410Z,37
2018-05-21T17:59:09.426Z,37
2018-05-21T18:00:11.443Z,37
2018-05-21T18:01:13.769Z,37
2018-05-21T18:02:15.781Z,37
2018-05-21T18:03:18.617Z,37
2018-05-21T18:04:20.609Z,37
2018-05-21T18:05:22.895Z,37
2018-05-21T18:06:24.919Z,37
2018-05-21T18:07:27.222Z,37
2018-05-21T18:08:29.238Z,37
2018-05-21T18:09:31.244Z,37
2018-05-21T18:10:33.258Z,37
2018-05-21T18:11:35.271Z,37
2018-05-21T18:12:37.288Z,37
2018-05-21T18:13:39.295Z,37
2018-05-21T18:14:41.332Z,37
2018-05-21T18:15:43.326Z,37
2018-05-21T18:16:45.328Z,37
2018-05-21T18:17:47.345Z,37
2018-05-21T18:18:49.375Z,38
2018-05-21T18:19:51.375Z,38
2018-05-21T18:20:53.379Z,38
2018-05-21T18:21:55.384Z,38
2018-05-21T18:22:57.398Z,38
2018-05-21T18:23:59.409Z,38
2018-05-21T18:25:01.416Z,39
2018-05-21T18:26:03.757Z,39
2018-05-21T18:27:05.759Z,39
2018-05-21T18:28:07.757Z,39
2018-05-21T18:29:09.765Z,39
2018-05-21T18:30:11.852Z,40
2018-05-21T18:31:14.157Z,39
2018-05-21T18:32:16.171Z,39
2018-05-21T18:33:18.174Z,40
2018-05-21T18:34:20.171Z,40
2018-05-21T18:35:22.186Z,40
2018-05-21T18:36:24.186Z,40
2018-05-21T18:37:26.201Z,41
2018-05-21T18:38:28.211Z,41
2018-05-21T18:39:30.504Z,41
2018-05-21T18:40:32.508Z,41
2018-05-21T18:41:34.582Z,41
2018-05-21T18:42:36.978Z,41
2018-05-21T18:43:38.951Z,41
2018-05-21T18:44:40.956Z,41
2018-05-21T18:45:42.973Z,42
2018-05-21T18:46:44.979Z,42
2018-05-21T18:47:46.973Z,42
2018-05-21T18:48:48.985Z,41
2018-05-21T18:49:51.555Z,42
2018-05-21T18:50:53.860Z,41
2018-05-21T18:51:56.260Z,41
2018-05-21T18:52:58.532Z,42
2018-05-21T18:54:00.676Z,42
2018-05-21T18:55:02.550Z,41
2018-05-21T18:56:04.548Z,41
2018-05-21T18:57:06.552Z,42
2018-05-21T18:58:08.552Z,42
2018-05-21T18:59:10.850Z,42
2018-05-21T19:00:12.869Z,42
2018-05-21T19:01:14.859Z,42
2018-05-21T19:02:16.871Z,43
2018-05-21T19:03:19.267Z,42
2018-05-21T19:04:21.549Z,43
2018-05-21T19:05:23.940Z,43
2018-05-21T19:06:25.941Z,43
2018-05-21T19:07:27.953Z,43
2018-05-21T19:08:29.941Z,43
2018-05-21T19:09:31.951Z,43
2018-05-21T19:10:33.951Z,43
2018-05-21T19:11:35.954Z,43
2018-05-21T19:12:37.955Z,43
2018-05-21T19:13:39.959Z,44
2018-05-21T19:14:42.238Z,44
2018-05-21T19:15:44.523Z,44
2018-05-21T19:16:46.527Z,44
2018-05-21T19:17:48.522Z,43
2018-05-21T19:18:50.529Z,44
2018-05-21T19:19:52.544Z,43
2018-05-21T19:20:54.847Z,44
2018-05-21T19:21:56.852Z,44
2018-05-21T19:22:58.858Z,44
2018-05-21T19:24:00.863Z,44
2018-05-21T19:25:03.145Z,44
2018-05-21T19:26:05.232Z,44
2018-05-21T19:27:07.245Z,44
2018-05-21T19:28:09.247Z,44
2018-05-21T19:29:11.285Z,44
2018-05-21T19:30:13.276Z,44
2018-05-21T19:31:15.441Z,44
2018-05-21T19:32:17.827Z,45
2018-05-21T19:33:20.206Z,45
2018-05-21T19:34:22.237Z,45
2018-05-21T19:35:24.233Z,45
2018-05-21T19:36:26.243Z,45
2018-05-21T19:37:28.248Z,45
2018-05-21T19:38:30.351Z,45
2018-05-21T19:39:32.698Z,46
2018-05-21T19:40:34.692Z,46
2018-05-21T19:41:36.761Z,46
2018-05-21T19:42:38.765Z,46
2018-05-21T19:43:40.798Z,46
2018-05-21T19:44:42.826Z,46
2018-05-21T19:45:44.819Z,46
2018-05-21T19:46:46.828Z,46
2018-05-21T19:47:49.128Z,47
2018-05-21T19:48:51.161Z,46
2018-05-21T19:49:53.455Z,47
2018-05-21T19:50:55.474Z,47
2018-05-21T19:51:57.551Z,47
2018-05-21T19:52:59.553Z,47
2018-05-21T19:54:01.552Z,47
2018-05-21T19:55:03.547Z,47
2018-05-21T19:56:05.553Z,47
2018-05-21T19:57:07.561Z,47
2018-05-21T19:58:09.549Z,48
2018-05-21T19:59:12.126Z,48
2018-05-21T20:00:14.139Z,48
2018-05-21T20:01:16.134Z,48
2018-05-21T20:02:18.157Z,48
2018-05-21T20:03:20.162Z,48
2018-05-21T20:04:22.193Z,48
2018-05-21T20:05:24.187Z,48
2018-05-21T20:06:26.188Z,48
2018-05-21T20:07:28.224Z,49
2018-05-21T20:08:30.622Z,49
2018-05-21T20:09:32.684Z,48
2018-05-21T20:10:34.682Z,48
2018-05-21T20:11:36.684Z,49
2018-05-21T20:12:38.779Z,49
2018-05-21T20:13:40.867Z,49
2018-05-21T20:14:43.736Z,49
2018-05-21T20:15:45.735Z,49
2018-05-21T20:16:48.028Z,49
2018-05-21T20:17:50.099Z,49
2018-05-21T20:18:52.410Z,49
2018-05-21T20:19:55.254Z,49
2018-05-21T20:20:57.263Z,49
2018-05-21T20:21:59.299Z,49
2018-05-21T20:23:01.302Z,49
2018-05-21T20:24:03.286Z,49
2018-05-21T20:25:05.302Z,49
2018-05-21T20:26:07.700Z,49
2018-05-21T20:27:09.696Z,49
2018-05-21T20:28:11.712Z,49
2018-05-21T20:29:13.714Z,49
2018-05-21T20:30:15.703Z,50
2018-05-21T20:31:17.721Z,50
2018-05-21T20:32:19.718Z,50
2018-05-21T20:33:22.007Z,50
2018-05-21T20:34:24.003Z,50
2018-05-21T20:35:25.998Z,50
2018-05-21T20:36:28.002Z,50
2018-05-21T20:37:29.993Z,51
2018-05-21T20:38:31.995Z,51
2018-05-21T20:39:34.005Z,51
2018-05-21T20:40:35.995Z,51
2018-05-21T20:41:38.001Z,51
2018-05-21T20:42:40.296Z,51
2018-05-21T20:43:42.292Z,51
2018-05-21T20:44:44.292Z,52
2018-05-21T20:45:46.283Z,52
2018-05-21T20:46:48.567Z,52
2018-05-21T20:47:50.572Z,51
2018-05-21T20:48:52.565Z,51
2018-05-21T20:49:54.577Z,52
2018-05-21T20:50:56.573Z,52
2018-05-21T20:51:58.845Z,52
2018-05-21T20:53:00.844Z,52
2018-05-21T20:54:02.841Z,51
2018-05-21T20:55:04.850Z,51
2018-05-21T20:56:06.920Z,52
2018-05-21T20:57:09.182Z,52
2018-05-21T20:58:11.193Z,52
2018-05-21T20:59:13.189Z,52
2018-05-21T21:00:15.189Z,52
2018-05-21T21:01:17.235Z,52
2018-05-21T21:02:19.762Z,52
2018-05-21T21:03:21.768Z,52
2018-05-21T21:04:24.037Z,52
2018-05-21T21:05:26.617Z,52
2018-05-21T21:06:28.610Z,52
2018-05-21T21:07:30.608Z,53
2018-05-21T21:08:32.918Z,52
2018-05-21T21:09:34.913Z,53
2018-05-21T21:10:37.675Z,53
2018-05-21T21:11:39.960Z,53
2018-05-21T21:12:42.234Z,53
2018-05-21T21:13:44.231Z,53
2018-05-21T21:14:46.228Z,53
2018-05-21T21:15:48.228Z,53
2018-05-21T21:16:50.224Z,53
2018-05-21T21:17:52.225Z,53
2018-05-21T21:18:54.236Z,53
2018-05-21T21:19:56.223Z,53
2018-05-21T21:20:58.212Z,54
2018-05-21T21:22:00.212Z,54
2018-05-21T21:23:02.211Z,54
2018-05-21T21:24:04.514Z,54
2018-05-21T21:25:06.513Z,54
2018-05-21T21:26:08.803Z,54
2018-05-21T21:27:11.186Z,54
2018-05-21T21:28:13.175Z,54
2018-05-21T21:29:15.166Z,54
2018-05-21T21:30:17.462Z,54
2018-05-21T21:31:19.736Z,54
2018-05-21T21:32:21.750Z,54
2018-05-21T21:33:23.742Z,54
2018-05-21T21:34:25.745Z,54
2018-05-21T21:35:28.040Z,54
2018-05-21T21:36:30.016Z,54
2018-05-21T21:37:32.607Z,54
2018-05-21T21:38:34.607Z,54
2018-05-21T21:39:36.589Z,55
2018-05-21T21:40:38.593Z,55
2018-05-21T21:41:40.582Z,55
2018-05-21T21:42:42.582Z,55
2018-05-21T21:43:45.256Z,55
2018-05-21T21:44:47.238Z,55
2018-05-21T21:45:49.244Z,55
2018-05-21T21:46:51.256Z,55
2018-05-21T21:47:53.635Z,55
2018-05-21T21:48:55.630Z,55
2018-05-21T21:49:57.619Z,55
2018-05-21T21:50:59.610Z,55
2018-05-21T21:52:01.615Z,55
2018-05-21T21:53:03.601Z,55
2018-05-21T21:54:05.888Z,56
2018-05-21T21:55:07.885Z,56
2018-05-21T21:56:09.879Z,56
2018-05-21T21:57:11.870Z,56
2018-05-21T21:58:14.150Z,56
2018-05-21T21:59:16.150Z,56
2018-05-21T22:00:18.145Z,56
2018-05-21T22:01:20.129Z,56
2018-05-21T22:02:22.139Z,57
2018-05-21T22:03:24.128Z,57
2018-05-21T22:04:26.532Z,57
2018-05-21T22:05:28.535Z,57
2018-05-21T22:06:30.528Z,57
2018-05-21T22:07:32.804Z,57
2018-05-21T22:08:34.800Z,57
2018-05-21T22:09:36.795Z,57
2018-05-21T22:10:38.792Z,57
2018-05-21T22:11:40.774Z,57
2018-05-21T22:12:43.091Z,58
2018-05-21T22:13:45.364Z,57
2018-05-21T22:14:47.659Z,58
2018-05-21T22:15:49.655Z,58
2018-05-21T22:16:51.652Z,58
2018-05-21T22:17:53.649Z,58
2018-05-21T22:18:55.645Z,58
2018-05-21T22:19:57.637Z,58
2018-05-21T22:21:00.024Z,58
2018-05-21T22:22:02.022Z,58
2018-05-21T22:23:04.027Z,58
2018-05-21T22:24:06.023Z,58
2018-05-21T22:25:08.023Z,58
2018-05-21T22:26:10.398Z,58
2018-05-21T22:27:12.385Z,58
2018-05-21T22:28:14.383Z,58
2018-05-21T22:29:16.666Z,59
2018-05-21T22:30:19.050Z,59
2018-05-21T22:31:21.042Z,59
2018-05-21T22:32:23.038Z,59
2018-05-21T22:33:25.041Z,59
2018-05-21T22:34:27.026Z,59
2018-05-21T22:35:29.026Z,59
2018-05-21T22:36:31.034Z,59
2018-05-21T22:37:33.311Z,60
2018-05-21T22:38:35.311Z,60
2018-05-21T22:39:37.301Z,60
2018-05-21T22:40:39.299Z,60
2018-05-21T22:41:41.300Z,60
2018-05-21T22:42:43.299Z,60
2018-05-21T22:43:45.300Z,60
2018-05-21T22:44:47.571Z,60
2018-05-21T22:45:49.549Z,60
2018-05-21T22:46:51.551Z,60
2018-05-21T22:47:53.833Z,61
2018-05-21T22:48:55.832Z,61
2018-05-21T22:49:57.825Z,61
2018-05-21T22:51:00.581Z,61
2018-05-21T22:52:02.585Z,61
2018-05-21T22:53:04.568Z,61
2018-05-21T22:54:06.564Z,62
2018-05-21T22:55:08.561Z,62
2018-05-21T22:56:10.550Z,61
2018-05-21T22:57:12.551Z,62
2018-05-21T22:58:14.542Z,62
2018-05-21T22:59:16.820Z,62
2018-05-21T23:00:18.826Z,62
2018-05-21T23:01:20.818Z,62
2018-05-21T23:02:22.814Z,62
2018-05-21T23:03:24.803Z,62
2018-05-21T23:04:26.798Z,63
2018-05-21T23:05:29.074Z,63
2018-05-21T23:06:31.737Z,63
2018-05-21T23:07:33.721Z,63
2018-05-21T23:08:35.727Z,63
2018-05-21T23:09:37.713Z,63
2018-05-21T23:10:39.714Z,63
2018-05-21T23:11:41.704Z,63
2018-05-21T23:12:43.707Z,63
2018-05-21T23:13:46.006Z,63
2018-05-21T23:14:48.373Z,63
2018-05-21T23:15:50.371Z,63
2018-05-21T23:16:52.667Z,63
2018-05-21T23:17:54.646Z,63
2018-05-21T23:18:56.657Z,63
2018-05-21T23:19:58.646Z,63
2018-05-21T23:21:00.645Z,63
2018-05-21T23:22:02.635Z,63
2018-05-21T23:23:04.623Z,63
2018-05-21T23:24:07.002Z,64
2018-05-21T23:25:08.996Z,64
2018-05-21T23:26:11.256Z,64
2018-05-21T23:27:13.267Z,63
2018-05-21T23:28:15.253Z,64
2018-05-21T23:29:17.248Z,64
2018-05-21T23:30:19.243Z,64
2018-05-21T23:31:21.542Z,64
2018-05-21T23:32:23.535Z,64
2018-05-21T23:33:25.525Z,64
2018-05-21T23:34:27.803Z,64
2018-05-21T23:35:29.807Z,64
2018-05-21T23:36:32.086Z,64
2018-05-21T23:37:34.386Z,64
2018-05-21T23:38:36.379Z,64
2018-05-21T23:39:38.653Z,65
2018-05-21T23:40:41.042Z,64
2018-05-21T23:41:43.033Z,65
2018-05-21T23:42:45.033Z,65
2018-05-21T23:43:47.027Z,65
2018-05-21T23:44:49.018Z,65
2018-05-21T23:45:51.020Z,65
2018-05-21T23:46:53.286Z,65
2018-05-21T23:47:55.672Z,65
2018-05-21T23:48:57.673Z,65
2018-05-21T23:49:59.657Z,65
2018-05-21T23:51:02.133Z,65
2018-05-21T23:52:04.350Z,65
2018-05-21T23:53:06.619Z,65
2018-05-21T23:54:08.909Z,65
2018-05-21T23:55:10.898Z,65
2018-05-21T23:56:12.897Z,66
2018-05-21T23:57:14.892Z,66
2018-05-21T23:58:17.189Z,66
2018-05-21T23:59:19.198Z,66
